Time;durP1;ratioP1;P1;durP2;ratioP2;P2;SDS_P1;SDS_P2;PMS_P1;PMS_P2;Temp;Humidity;BMP_temperature;BMP_pressure;BME280_temperature;BME280_humidity;BME280_pressure;Samples;Min_cycle;Max_cycle;Signal;HPM_P1;HPM_P2
2021/01/28 00:02:12;;;;;;;10.17;1.80;;;;;;;;;;6195215;23;20028;-81
2021/01/28 00:04:37;;;;;;;19.50;2.60;;;;;;;;;;6194984;23;20008;-81
2021/01/28 00:07:03;;;;;;;14.67;2.30;;;;;;;;;;6170969;23;20023;-81
2021/01/28 00:09:30;;;;;;;19.40;2.70;;;;;;;;;;6196584;23;20004;-81
2021/01/28 00:11:56;;;;;;;17.63;2.63;;;;;;;;;;6195821;23;20338;-81
2021/01/28 00:14:22;;;;;;;10.13;2.20;;;;;;;;;;6171689;23;20008;-81
2021/01/28 00:16:48;;;;;;;11.43;2.43;;;;;;;;;;6171952;23;20012;-81
2021/01/28 00:19:14;;;;;;;10.70;1.90;;;;;;;;;;6173772;23;20012;-81
2021/01/28 00:22:01;;;;;;;12.20;3.07;;;;;;;;;;6173559;23;20155;-81
2021/01/28 00:24:27;;;;;;;11.63;1.83;;;;;;;;;;6203269;23;20043;-80
2021/01/28 00:26:53;;;;;;;9.33;2.20;;;;;;;;;;6178078;23;20031;-80
2021/01/28 00:29:19;;;;;;;12.27;2.47;;;;;;;;;;6202271;23;20304;-80
2021/01/28 00:31:45;;;;;;;11.13;2.10;;;;;;;;;;6197824;23;20005;-81
2021/01/28 00:34:11;;;;;;;9.53;2.00;;;;;;;;;;6199304;23;20358;-80
2021/01/28 00:36:37;;;;;;;9.63;1.87;;;;;;;;;;6171009;23;20009;-82
2021/01/28 00:39:04;;;;;;;17.50;2.60;;;;;;;;;;6172396;23;20058;-80
2021/01/28 00:41:30;;;;;;;7.90;1.50;;;;;;;;;;6224401;23;20075;-80
2021/01/28 00:43:57;;;;;;;12.70;2.13;;;;;;;;;;6198747;23;20131;-80
2021/01/28 00:46:23;;;;;;;11.73;1.90;;;;;;;;;;6199621;23;20015;-81
2021/01/28 00:48:49;;;;;;;11.20;2.13;;;;;;;;;;6178676;23;20068;-80
2021/01/28 00:51:15;;;;;;;15.60;2.23;;;;;;;;;;6179660;23;20008;-80
2021/01/28 00:53:41;;;;;;;5.87;1.43;;;;;;;;;;6175332;23;20312;-81
2021/01/28 00:56:07;;;;;;;8.97;2.03;;;;;;;;;;6167339;23;20027;-80
2021/01/28 01:01:37;;;;;;;15.40;2.53;;;;;;;;;;6194048;23;20369;-80
2021/01/28 01:04:22;;;;;;;9.40;2.40;;;;;;;;;;6169099;23;20012;-80
2021/01/28 01:06:49;;;;;;;15.75;2.33;;;;;;;;;;6192897;23;20012;-81
2021/01/28 01:09:15;;;;;;;10.43;2.03;;;;;;;;;;6196060;23;20408;-80
2021/01/28 01:11:41;;;;;;;10.00;2.10;;;;;;;;;;6194346;23;20451;-80
2021/01/28 01:14:07;;;;;;;16.90;2.70;;;;;;;;;;6194357;23;20057;-80
2021/01/28 01:16:33;;;;;;;13.93;2.60;;;;;;;;;;6170168;23;20013;-80
2021/01/28 01:18:59;;;;;;;7.67;1.70;;;;;;;;;;6173354;23;20013;-80
2021/01/28 01:21:25;;;;;;;7.00;2.27;;;;;;;;;;6175046;23;20005;-80
2021/01/28 01:23:51;;;;;;;11.37;2.23;;;;;;;;;;6174459;23;20022;-80
2021/01/28 01:26:17;;;;;;;12.57;3.10;;;;;;;;;;6174303;23;20106;-80
2021/01/28 01:28:43;;;;;;;16.50;3.37;;;;;;;;;;6201554;23;20001;-80
2021/01/28 01:31:09;;;;;;;11.50;2.57;;;;;;;;;;6171251;23;20009;-80
2021/01/28 01:33:35;;;;;;;22.83;3.97;;;;;;;;;;6193763;23;20080;-81
2021/01/28 01:36:01;;;;;;;9.70;2.70;;;;;;;;;;6194912;23;20064;-81
2021/01/28 01:38:27;;;;;;;15.50;2.80;;;;;;;;;;6193299;23;20005;-81
2021/01/28 01:40:57;;;;;;;12.77;2.40;;;;;;;;;;6169229;23;20009;-80
2021/01/28 01:43:24;;;;;;;13.93;2.73;;;;;;;;;;6193721;23;20427;-81
2021/01/28 01:48:57;;;;;;;13.40;2.20;;;;;;;;;;6197300;23;20049;-80
2021/01/28 01:51:23;;;;;;;9.47;2.83;;;;;;;;;;6197603;23;20013;-80
2021/01/28 01:53:55;;;;;;;17.73;3.00;;;;;;;;;;6197219;23;20001;-80
2021/01/28 01:56:30;;;;;;;17.23;2.63;;;;;;;;;;6214936;23;20334;-80
2021/01/28 01:58:56;;;;;;;;;;;;;;;;;;6206967;23;20000;-80
2021/01/28 02:01:24;;;;;;;17.43;2.93;;;;;;;;;;6228388;23;19911;-81
2021/01/28 02:03:51;;;;;;;13.10;3.00;;;;;;;;;;6201089;23;20009;-80
2021/01/28 02:06:27;;;;;;;17.03;4.00;;;;;;;;;;6176613;23;20013;-81
2021/01/28 02:08:54;;;;;;;12.53;3.50;;;;;;;;;;6203741;23;20068;-80
2021/01/28 02:11:20;;;;;;;19.13;3.93;;;;;;;;;;6178926;23;20012;-80
2021/01/28 02:13:48;;;;;;;14.77;3.13;;;;;;;;;;6179600;23;20016;-81
2021/01/28 02:16:15;;;;;;;22.87;3.97;;;;;;;;;;6229996;23;20001;-80
2021/01/28 02:18:42;;;;;;;13.00;3.63;;;;;;;;;;6231411;23;20012;-80
2021/01/28 02:21:17;;;;;;;17.13;3.73;;;;;;;;;;6180696;23;20017;-80
2021/01/28 02:24:02;;;;;;;17.58;4.10;;;;;;;;;;6203726;23;20079;-81
2021/01/28 02:26:28;;;;;;;19.67;5.95;;;;;;;;;;6204209;23;20001;-80
2021/01/28 02:28:54;;;;;;;22.07;4.10;;;;;;;;;;6197550;23;20482;-80
2021/01/28 02:31:38;;;;;;;13.53;4.13;;;;;;;;;;6170933;23;20422;-81
2021/01/28 02:34:06;;;;;;;19.02;3.95;;;;;;;;;;6194477;23;20032;-81
2021/01/28 02:36:37;;;;;;;13.87;3.07;;;;;;;;;;6195198;23;20008;-81
2021/01/28 02:39:05;;;;;;;14.33;3.87;;;;;;;;;;6195861;23;20303;-80
2021/01/28 02:41:32;;;;;;;16.77;4.30;;;;;;;;;;6223484;23;20000;-80
2021/01/28 02:43:58;;;;;;;13.67;3.30;;;;;;;;;;6222822;23;19997;-80
2021/01/28 02:46:25;;;;;;;13.63;3.77;;;;;;;;;;6196475;23;20480;-80
2021/01/28 02:48:51;;;;;;;17.20;4.20;;;;;;;;;;6198192;23;20012;-81
2021/01/28 02:51:17;;;;;;;12.93;4.40;;;;;;;;;;6195161;23;20076;-81
2021/01/28 02:53:45;;;;;;;16.53;4.47;;;;;;;;;;6196811;23;20016;-80
2021/01/28 02:56:11;;;;;;;18.30;5.20;;;;;;;;;;6191312;23;20075;-80
2021/01/28 02:58:37;;;;;;;17.57;5.13;;;;;;;;;;6168104;23;20077;-80
2021/01/28 03:01:04;;;;;;;13.60;4.37;;;;;;;;;;6193240;23;20062;-80
2021/01/28 03:03:29;;;;;;;24.37;5.80;;;;;;;;;;6193305;23;20040;-81
2021/01/28 03:05:56;;;;;;;14.27;4.00;;;;;;;;;;6169762;23;20024;-81
2021/01/28 03:08:24;;;;;;;18.57;4.10;;;;;;;;;;6193666;23;20067;-80
2021/01/28 03:10:50;;;;;;;15.80;4.30;;;;;;;;;;6195114;23;20012;-81
2021/01/28 03:13:16;;;;;;;14.73;5.00;;;;;;;;;;6202799;23;20005;-80
2021/01/28 03:15:42;;;;;;;20.93;4.80;;;;;;;;;;6175233;23;20001;-81
2021/01/28 03:18:08;;;;;;;16.53;4.50;;;;;;;;;;6202595;23;20063;-81
2021/01/28 03:20:34;;;;;;;16.23;4.13;;;;;;;;;;6206401;23;20005;-80
2021/01/28 03:23:00;;;;;;;15.17;3.30;;;;;;;;;;6173673;23;20073;-81
2021/01/28 03:28:33;;;;;;;17.93;4.70;;;;;;;;;;6193245;23;20019;-81
2021/01/28 03:30:59;;;;;;;9.17;3.50;;;;;;;;;;6192498;23;20020;-81
2021/01/28 03:33:25;;;;;;;16.80;4.00;;;;;;;;;;6168339;23;20012;-80
2021/01/28 03:35:51;;;;;;;18.07;3.73;;;;;;;;;;6193733;23;20009;-80
2021/01/28 03:38:18;;;;;;;12.90;3.90;;;;;;;;;;6168722;23;20009;-81
2021/01/28 03:40:45;;;;;;;12.73;3.60;;;;;;;;;;6195395;23;20005;-81
2021/01/28 03:43:11;;;;;;;12.50;4.20;;;;;;;;;;6195485;23;20005;-81
2021/01/28 03:45:37;;;;;;;14.33;4.60;;;;;;;;;;6194857;23;20005;-81
2021/01/28 03:48:03;;;;;;;13.10;3.77;;;;;;;;;;6194772;23;20073;-80
2021/01/28 03:50:34;;;;;;;15.90;4.10;;;;;;;;;;6194225;23;20012;-80
2021/01/28 03:53:00;;;;;;;8.93;3.80;;;;;;;;;;6198947;23;20008;-80
2021/01/28 03:55:26;;;;;;;10.70;3.87;;;;;;;;;;6198219;23;20009;-80
2021/01/28 03:57:53;;;;;;;14.87;4.43;;;;;;;;;;6169498;23;20029;-80
2021/01/28 04:00:46;;;;;;;14.57;4.27;;;;;;;;;;6197970;23;20471;-80
2021/01/28 04:03:12;;;;;;;13.67;4.20;;;;;;;;;;6189559;23;20005;-80
2021/01/28 04:05:38;;;;;;;12.53;4.30;;;;;;;;;;6192456;23;20051;-80
2021/01/28 04:08:04;;;;;;;15.10;4.87;;;;;;;;;;6168976;23;20033;-80
2021/01/28 04:10:32;;;;;;;13.50;4.70;;;;;;;;;;6195827;23;20004;-80
2021/01/28 04:12:59;;;;;;;12.67;5.30;;;;;;;;;;6194535;23;20005;-80
2021/01/28 04:15:25;;;;;;;19.03;5.57;;;;;;;;;;6196338;23;20012;-80
2021/01/28 04:17:51;;;;;;;15.27;6.60;;;;;;;;;;6196465;23;20315;-80
2021/01/28 04:20:19;;;;;;;19.63;7.23;;;;;;;;;;6194701;23;20016;-80
2021/01/28 04:22:45;;;;;;;19.93;7.13;;;;;;;;;;6199561;23;20012;-80
2021/01/28 04:25:12;;;;;;;19.20;7.27;;;;;;;;;;6194133;23;20015;-80
2021/01/28 04:27:38;;;;;;;15.70;6.83;;;;;;;;;;6193155;23;20172;-81
2021/01/28 04:30:06;;;;;;;20.47;7.47;;;;;;;;;;6195393;23;20437;-80
2021/01/28 04:32:32;;;;;;;19.53;9.17;;;;;;;;;;6194491;23;20312;-80
2021/01/28 04:34:58;;;;;;;26.20;10.43;;;;;;;;;;6170234;23;20036;-80
2021/01/28 04:37:24;;;;;;;26.23;11.40;;;;;;;;;;6171121;23;20009;-80
2021/01/28 04:39:51;;;;;;;30.67;10.23;;;;;;;;;;6167769;23;20021;-80
2021/01/28 04:42:19;;;;;;;29.20;12.77;;;;;;;;;;6192329;23;20005;-80
2021/01/28 04:44:45;;;;;;;31.17;12.07;;;;;;;;;;6197259;23;20005;-81
2021/01/28 04:47:15;;;;;;;27.47;13.23;;;;;;;;;;6204734;23;20040;-81
2021/01/28 04:49:54;;;;;;;36.83;13.70;;;;;;;;;;6204200;23;20012;-81
2021/01/28 04:52:21;;;;;;;35.40;14.80;;;;;;;;;;6185070;23;20427;-81
2021/01/28 04:54:48;;;;;;;26.50;11.13;;;;;;;;;;6190880;23;20132;-81
2021/01/28 04:57:14;;;;;;;34.97;12.70;;;;;;;;;;6164967;23;20017;-81
2021/01/28 04:59:43;;;;;;;36.93;11.60;;;;;;;;;;6192451;23;20017;-81
2021/01/28 05:02:18;;;;;;;33.53;13.63;;;;;;;;;;6191590;23;20005;-81
2021/01/28 05:04:46;;;;;;;28.98;12.30;;;;;;;;;;6192310;23;20004;-80
2021/01/28 05:07:16;;;;;;;31.93;12.87;;;;;;;;;;6191972;23;20044;-81
2021/01/28 05:09:42;;;;;;;24.67;10.73;;;;;;;;;;6197641;23;20012;-82
2021/01/28 05:12:08;;;;;;;34.20;13.87;;;;;;;;;;6200736;23;20055;-81
2021/01/28 05:14:35;;;;;;;25.00;10.57;;;;;;;;;;6196365;23;20001;-81
2021/01/28 05:17:04;;;;;;;23.77;9.33;;;;;;;;;;6199317;23;20114;-81
2021/01/28 05:19:46;;;;;;;26.87;9.47;;;;;;;;;;6189677;23;20001;-80
2021/01/28 05:22:18;;;;;;;25.00;12.37;;;;;;;;;;6188899;23;20001;-80
2021/01/28 05:24:48;;;;;;;23.83;10.23;;;;;;;;;;6189244;23;20040;-81
2021/01/28 05:27:18;;;;;;;26.27;11.33;;;;;;;;;;6189545;23;20013;-81
2021/01/28 05:29:45;;;;;;;24.67;12.40;;;;;;;;;;6191406;23;20005;-80
2021/01/28 05:32:31;;;;;;;22.87;11.23;;;;;;;;;;6191163;23;20012;-81
2021/01/28 05:35:12;;;;;;;16.33;9.07;;;;;;;;;;6190460;23;20001;-80
2021/01/28 05:37:39;;;;;;;18.20;8.73;;;;;;;;;;6192698;23;20001;-81
2021/01/28 05:40:24;;;;;;;20.03;12.37;;;;;;;;;;6191630;23;20009;-81
2021/01/28 05:42:52;;;;;;;18.67;10.50;;;;;;;;;;6192545;23;20337;-81
2021/01/28 05:45:24;;;;;;;21.07;11.13;;;;;;;;;;6193089;23;20009;-81
2021/01/28 05:47:51;;;;;;;22.13;12.03;;;;;;;;;;6194834;23;20028;-81
2021/01/28 05:50:23;;;;;;;19.40;11.63;;;;;;;;;;6196773;23;20016;-81
2021/01/28 05:52:50;;;;;;;23.77;12.00;;;;;;;;;;6198969;23;20027;-82
2021/01/28 05:55:17;;;;;;;19.10;9.13;;;;;;;;;;6199801;23;20009;-83
2021/01/28 05:57:46;;;;;;;14.53;8.40;;;;;;;;;;6201601;23;20059;-81
2021/01/28 06:00:31;;;;;;;24.60;14.23;;;;;;;;;;6205188;23;20013;-81
2021/01/28 06:06:20;;;;;;;22.47;12.07;;;;;;;;;;6141356;23;20501;-81
2021/01/28 06:08:52;;;;;;;28.52;13.95;;;;;;;;;;6138872;23;20006;-83
2021/01/28 06:11:28;;;;;;;16.20;9.07;;;;;;;;;;6112011;23;20008;-82
2021/01/28 06:14:13;;;;;;;22.80;12.80;;;;;;;;;;6108044;23;20002;-83
2021/01/28 06:19:44;;;;;;;9.03;5.07;;;;;;;;;;6131254;23;20025;-81
2021/01/28 06:22:10;;;;;;;23.57;10.07;;;;;;;;;;6104686;23;20447;-81
2021/01/28 06:24:41;;;;;;;23.67;11.60;;;;;;;;;;6130034;23;20009;-81
2021/01/28 06:27:25;;;;;;;19.77;10.77;;;;;;;;;;6105717;23;20014;-81
2021/01/28 06:29:54;;;;;;;21.55;12.05;;;;;;;;;;6130196;23;20009;-81
2021/01/28 06:32:34;;;;;;;11.80;5.17;;;;;;;;;;6105827;23;20073;-81
2021/01/28 06:35:11;;;;;;;26.03;12.80;;;;;;;;;;6130353;23;20014;-81
2021/01/28 06:37:50;;;;;;;29.83;14.77;;;;;;;;;;6186747;23;20466;-82
2021/01/28 06:40:21;;;;;;;18.30;9.80;;;;;;;;;;6198601;23;20007;-79
2021/01/28 06:43:00;;;;;;;21.00;11.67;;;;;;;;;;6201029;23;20027;-81
2021/01/28 06:45:31;;;;;;;17.87;8.57;;;;;;;;;;6203533;23;20040;-80
2021/01/28 06:48:12;;;;;;;17.97;7.83;;;;;;;;;;6207972;23;20052;-80
2021/01/28 06:50:55;;;;;;;13.60;6.67;;;;;;;;;;6205435;23;20288;-81
2021/01/28 06:53:39;;;;;;;14.60;6.83;;;;;;;;;;6205027;23;20016;-80
2021/01/28 06:56:21;;;;;;;10.40;5.07;;;;;;;;;;6203322;23;20060;-79
2021/01/28 06:58:50;;;;;;;12.83;6.53;;;;;;;;;;6196816;23;20009;-79
2021/01/28 07:01:39;;;;;;;13.03;5.37;;;;;;;;;;6200218;23;20000;-80
2021/01/28 07:04:05;;;;;;;19.97;7.10;;;;;;;;;;6179918;23;20009;-79
2021/01/28 07:06:34;;;;;;;24.00;10.87;;;;;;;;;;6203859;23;20017;-80
2021/01/28 07:09:03;;;;;;;10.93;4.67;;;;;;;;;;6226469;23;19996;-80
2021/01/28 07:11:32;;;;;;;20.70;9.07;;;;;;;;;;6201939;23;20004;-80
2021/01/28 07:13:59;;;;;;;13.80;5.30;;;;;;;;;;6195069;23;20001;-80
2021/01/28 07:16:31;;;;;;;10.63;5.03;;;;;;;;;;6195761;23;20008;-80
2021/01/28 07:19:02;;;;;;;14.17;5.57;;;;;;;;;;6223110;23;19996;-79
2021/01/28 07:21:36;;;;;;;17.57;5.93;;;;;;;;;;6225557;23;20012;-81
2021/01/28 07:24:08;;;;;;;11.13;5.20;;;;;;;;;;6198701;23;20080;-79
2021/01/28 07:26:45;;;;;;;5.07;2.93;;;;;;;;;;6227375;23;20032;-79
2021/01/28 07:29:33;;;;;;;11.63;3.50;;;;;;;;;;6202425;23;20004;-80
2021/01/28 07:32:04;;;;;;;11.97;3.90;;;;;;;;;;6208301;23;20419;-80
2021/01/28 07:34:30;;;;;;;7.30;2.97;;;;;;;;;;6234599;23;20008;-80
2021/01/28 07:36:59;;;;;;;10.50;3.07;;;;;;;;;;6186471;23;20010;-82
2021/01/28 07:39:31;;;;;;;6.23;1.87;;;;;;;;;;6206551;23;20327;-81
2021/01/28 07:41:59;;;;;;;6.47;2.03;;;;;;;;;;6199353;23;20082;-81
2021/01/28 07:44:25;;;;;;;8.73;3.60;;;;;;;;;;6196842;23;20012;-81
2021/01/28 07:46:52;;;;;;;7.00;3.70;;;;;;;;;;6194478;23;20004;-81
2021/01/28 07:49:29;;;;;;;4.87;2.13;;;;;;;;;;6198041;23;20024;-81
2021/01/28 07:52:01;;;;;;;9.77;3.03;;;;;;;;;;6197954;23;20000;-81
2021/01/28 07:54:30;;;;;;;9.70;2.53;;;;;;;;;;6201019;23;20004;-81
2021/01/28 07:56:57;;;;;;;12.27;3.40;;;;;;;;;;6204673;23;20025;-81
2021/01/28 07:59:23;;;;;;;9.60;2.80;;;;;;;;;;6195960;23;20012;-81
2021/01/28 08:01:51;;;;;;;3.30;1.60;;;;;;;;;;6197248;23;20028;-79
2021/01/28 08:04:26;;;;;;;6.63;2.70;;;;;;;;;;6197775;23;20012;-80
2021/01/28 08:06:53;;;;;;;7.70;2.77;;;;;;;;;;6223114;23;20107;-80
2021/01/28 08:09:19;;;;;;;7.57;3.27;;;;;;;;;;6198737;23;20000;-79
2021/01/28 08:11:49;;;;;;;7.73;2.77;;;;;;;;;;6175278;23;20031;-80
2021/01/28 08:14:16;;;;;;;10.07;4.80;;;;;;;;;;6231027;23;20003;-80
2021/01/28 08:16:48;;;;;;;5.03;2.47;;;;;;;;;;6181694;23;20084;-81
2021/01/28 08:19:18;;;;;;;8.27;3.17;;;;;;;;;;6206237;23;20072;-81
2021/01/28 08:21:44;;;;;;;14.60;4.87;;;;;;;;;;6207278;23;20005;-81
2021/01/28 08:24:10;;;;;;;5.73;2.20;;;;;;;;;;6209178;23;20075;-79
2021/01/28 08:26:42;;;;;;;14.27;6.07;;;;;;;;;;6209190;23;20013;-81
2021/01/28 08:29:19;;;;;;;9.37;3.23;;;;;;;;;;6208981;23;20009;-80
2021/01/28 08:31:50;;;;;;;19.00;6.37;;;;;;;;;;6236271;23;20000;-81
2021/01/28 08:34:19;;;;;;;9.37;3.97;;;;;;;;;;6209159;23;20024;-78
2021/01/28 08:36:48;;;;;;;5.67;1.83;;;;;;;;;;6208621;23;20061;-80
2021/01/28 08:39:22;;;;;;;9.70;3.90;;;;;;;;;;6209900;23;20005;-80
2021/01/28 08:41:59;;;;;;;10.75;5.15;;;;;;;;;;6236234;23;19997;-79
2021/01/28 08:44:25;;;;;;;11.20;5.37;;;;;;;;;;6210208;23;20007;-80
2021/01/28 08:47:02;;;;;;;12.60;5.93;;;;;;;;;;6235575;23;20363;-80
2021/01/28 08:49:28;;;;;;;12.47;4.70;;;;;;;;;;6208071;23;20005;-81
2021/01/28 08:52:06;;;;;;;16.37;5.53;;;;;;;;;;6212188;23;20114;-81
2021/01/28 08:54:34;;;;;;;7.77;2.70;;;;;;;;;;6232223;23;20007;-79
2021/01/28 08:57:00;;;;;;;6.33;2.30;;;;;;;;;;6230516;23;20008;-81
2021/01/28 08:59:37;;;;;;;12.33;4.67;;;;;;;;;;6180405;23;20017;-80
2021/01/28 09:02:03;;;;;;;12.67;5.27;;;;;;;;;;6208968;23;19997;-83
2021/01/28 09:04:31;;;;;;;4.40;2.27;;;;;;;;;;6208119;23;20028;-81
2021/01/28 09:06:57;;;;;;;12.17;5.40;;;;;;;;;;6235692;23;20009;-81
2021/01/28 09:09:28;;;;;;;10.83;4.23;;;;;;;;;;6233961;23;19997;-80
2021/01/28 09:12:14;;;;;;;10.67;3.37;;;;;;;;;;6206558;23;20032;-80
2021/01/28 09:14:40;;;;;;;11.80;4.10;;;;;;;;;;6207240;23;20016;-80
2021/01/28 09:17:26;;;;;;;8.63;2.70;;;;;;;;;;6208790;23;20008;-81
2021/01/28 09:19:57;;;;;;;5.53;2.93;;;;;;;;;;6179997;23;20366;-80
2021/01/28 09:22:37;;;;;;;9.17;4.10;;;;;;;;;;6200331;23;20005;-80
2021/01/28 09:25:23;;;;;;;6.23;2.73;;;;;;;;;;6200597;23;20094;-80
2021/01/28 09:28:07;;;;;;;9.40;3.10;;;;;;;;;;6198861;23;20332;-81
2021/01/28 09:30:38;;;;;;;7.10;3.33;;;;;;;;;;6200049;23;20015;-81
2021/01/28 09:33:23;;;;;;;8.00;2.83;;;;;;;;;;6200484;23;20068;-80
2021/01/28 09:36:07;;;;;;;7.95;3.83;;;;;;;;;;6197925;23;20032;-80
2021/01/28 09:38:34;;;;;;;6.80;2.25;;;;;;;;;;6197215;23;20005;-81
2021/01/28 09:41:20;;;;;;;8.77;3.43;;;;;;;;;;6174262;23;20011;-81
2021/01/28 09:43:46;;;;;;;6.40;3.50;;;;;;;;;;6201340;23;20366;-81
2021/01/28 09:46:18;;;;;;;6.17;2.80;;;;;;;;;;6202901;23;20012;-80
2021/01/28 09:48:45;;;;;;;3.87;1.77;;;;;;;;;;6199401;23;20020;-80
2021/01/28 09:51:12;;;;;;;6.73;2.10;;;;;;;;;;6171877;23;20339;-80
2021/01/28 09:53:39;;;;;;;5.50;2.37;;;;;;;;;;6197599;23;20005;-79
2021/01/28 09:56:05;;;;;;;5.87;1.93;;;;;;;;;;6197688;23;20008;-81
2021/01/28 09:58:31;;;;;;;9.03;2.97;;;;;;;;;;6195652;23;20017;-80
2021/01/28 10:00:57;;;;;;;2.57;1.13;;;;;;;;;;6171998;23;20031;-80
2021/01/28 10:03:24;;;;;;;6.77;2.40;;;;;;;;;;6197705;23;20008;-80
2021/01/28 10:05:50;;;;;;;3.47;1.73;;;;;;;;;;6197956;23;20008;-80
2021/01/28 10:08:18;;;;;;;10.77;3.07;;;;;;;;;;6198301;23;20042;-79
2021/01/28 10:10:44;;;;;;;5.03;2.87;;;;;;;;;;6198455;23;20012;-81
2021/01/28 10:13:12;;;;;;;5.17;2.07;;;;;;;;;;6199092;23;20004;-80
2021/01/28 10:15:38;;;;;;;2.37;1.27;;;;;;;;;;6197665;23;20015;-81
2021/01/28 10:18:04;;;;;;;5.17;2.23;;;;;;;;;;6175442;23;20012;-80
2021/01/28 10:20:30;;;;;;;1.33;1.23;;;;;;;;;;6177526;23;20009;-83
2021/01/28 10:23:01;;;;;;;5.47;3.17;;;;;;;;;;6207705;23;20009;-82
2021/01/28 10:25:29;;;;;;;3.97;2.50;;;;;;;;;;6213261;23;20013;-85
2021/01/28 10:27:55;;;;;;;2.17;1.07;;;;;;;;;;6239899;23;20004;-83
2021/01/28 10:30:22;;;;;;;2.43;1.43;;;;;;;;;;6211224;23;20005;-83
2021/01/28 10:32:49;;;;;;;6.00;3.10;;;;;;;;;;6205133;23;20031;-82
2021/01/28 10:35:18;;;;;;;4.30;2.17;;;;;;;;;;6229927;23;20000;-83
2021/01/28 10:37:44;;;;;;;7.50;2.70;;;;;;;;;;6227507;23;20327;-83
2021/01/28 10:40:11;;;;;;;4.10;2.73;;;;;;;;;;6205964;23;20005;-83
2021/01/28 10:42:42;;;;;;;10.17;3.10;;;;;;;;;;6210676;23;20039;-83
2021/01/28 10:45:13;;;;;;;4.57;2.53;;;;;;;;;;6229870;23;20388;-82
2021/01/28 10:47:39;;;;;;;2.03;1.13;;;;;;;;;;6207798;23;20064;-83
2021/01/28 10:50:06;;;;;;;5.13;3.63;;;;;;;;;;6211155;23;20035;-83
2021/01/28 10:52:32;;;;;;;3.20;1.90;;;;;;;;;;6208213;23;20023;-82
2021/01/28 10:54:58;;;;;;;6.87;3.23;;;;;;;;;;6188233;23;20052;-84
2021/01/28 10:57:24;;;;;;;4.87;2.77;;;;;;;;;;6213855;23;20001;-83
2021/01/28 10:59:50;;;;;;;3.63;1.33;;;;;;;;;;6206805;23;20072;-84
2021/01/28 11:02:16;;;;;;;4.53;3.10;;;;;;;;;;6191013;23;20043;-82
2021/01/28 11:04:42;;;;;;;6.87;3.37;;;;;;;;;;6175723;23;20004;-82
2021/01/28 11:07:08;;;;;;;2.63;1.43;;;;;;;;;;6199976;23;20042;-83
2021/01/28 11:09:34;;;;;;;2.17;1.10;;;;;;;;;;6201586;23;20023;-81
2021/01/28 11:12:01;;;;;;;2.93;1.47;;;;;;;;;;6201200;23;20008;-83
2021/01/28 11:14:27;;;;;;;2.43;2.00;;;;;;;;;;6200822;23;20009;-82
2021/01/28 11:16:53;;;;;;;2.93;2.00;;;;;;;;;;6174580;23;20012;-81
2021/01/28 11:19:19;;;;;;;5.83;2.93;;;;;;;;;;6175231;23;20087;-82
2021/01/28 11:21:45;;;;;;;5.60;2.53;;;;;;;;;;6226336;23;20059;-82
2021/01/28 11:24:12;;;;;;;1.83;1.00;;;;;;;;;;6199051;23;20127;-83
2021/01/28 11:26:38;;;;;;;1.23;0.90;;;;;;;;;;6176660;23;20055;-83
2021/01/28 11:29:06;;;;;;;1.80;1.17;;;;;;;;;;6202930;23;20001;-82
2021/01/28 11:31:32;;;;;;;4.03;1.53;;;;;;;;;;6208828;23;20056;-83
2021/01/28 11:33:58;;;;;;;2.20;1.23;;;;;;;;;;6215672;23;20005;-83
2021/01/28 11:36:24;;;;;;;1.10;0.90;;;;;;;;;;6215447;23;20016;-82
2021/01/28 11:38:50;;;;;;;2.23;1.20;;;;;;;;;;6188663;23;20026;-83
2021/01/28 11:41:16;;;;;;;1.63;0.93;;;;;;;;;;6211391;23;20048;-84
2021/01/28 11:43:42;;;;;;;3.40;1.97;;;;;;;;;;6210597;23;20031;-81
2021/01/28 11:46:08;;;;;;;2.63;1.53;;;;;;;;;;6204411;23;20009;-82
2021/01/28 11:48:34;;;;;;;4.60;2.27;;;;;;;;;;6186672;23;20068;-85
2021/01/28 11:51:00;;;;;;;1.67;1.40;;;;;;;;;;6215770;23;20004;-84
2021/01/28 11:53:26;;;;;;;1.93;1.20;;;;;;;;;;6215680;23;20062;-84
2021/01/28 11:55:53;;;;;;;4.47;1.30;;;;;;;;;;6205142;23;20036;-83
2021/01/28 11:58:19;;;;;;;3.77;1.63;;;;;;;;;;6204286;23;20019;-83
2021/01/28 12:00:46;;;;;;;4.67;1.90;;;;;;;;;;6202764;23;20052;-82
2021/01/28 12:03:12;;;;;;;3.10;1.93;;;;;;;;;;6199614;23;20004;-82
2021/01/28 12:05:38;;;;;;;1.33;0.83;;;;;;;;;;6206845;23;20074;-83
2021/01/28 12:08:04;;;;;;;2.20;1.50;;;;;;;;;;6205359;23;20004;-83
2021/01/28 12:10:33;;;;;;;3.27;1.57;;;;;;;;;;6232346;23;20024;-83
2021/01/28 12:12:59;;;;;;;2.57;1.63;;;;;;;;;;6207116;23;20008;-83
2021/01/28 12:15:27;;;;;;;2.30;1.70;;;;;;;;;;6203016;23;20158;-84
2021/01/28 12:17:54;;;;;;;2.40;1.63;;;;;;;;;;6209003;23;20008;-84
2021/01/28 12:20:23;;;;;;;3.00;1.00;;;;;;;;;;6231607;23;20027;-82
2021/01/28 12:22:49;;;;;;;1.03;0.77;;;;;;;;;;6225851;23;20001;-82
2021/01/28 12:25:15;;;;;;;3.43;2.20;;;;;;;;;;6200545;23;20001;-83
2021/01/28 12:27:42;;;;;;;1.53;0.60;;;;;;;;;;6180635;23;20005;-83
2021/01/28 12:30:09;;;;;;;4.30;3.00;;;;;;;;;;6212885;23;20001;-85
2021/01/28 12:32:35;;;;;;;5.67;2.37;;;;;;;;;;6204379;23;20005;-82
2021/01/28 12:35:03;;;;;;;7.60;3.10;;;;;;;;;;6226894;23;20031;-82
2021/01/28 12:37:29;;;;;;;6.03;3.10;;;;;;;;;;6202204;23;20068;-82
2021/01/28 12:39:56;;;;;;;4.97;2.40;;;;;;;;;;6207804;23;20434;-83
2021/01/28 12:42:22;;;;;;;5.03;3.03;;;;;;;;;;6179827;23;20054;-82
2021/01/28 12:44:48;;;;;;;4.07;1.83;;;;;;;;;;6204325;23;20024;-82
2021/01/28 12:47:14;;;;;;;1.97;1.07;;;;;;;;;;6206997;23;20027;-83
2021/01/28 12:49:40;;;;;;;2.70;1.50;;;;;;;;;;6237164;23;20024;-83
2021/01/28 12:52:06;;;;;;;3.60;2.50;;;;;;;;;;6210753;23;20001;-82
2021/01/28 12:54:32;;;;;;;3.83;2.33;;;;;;;;;;6212672;23;20001;-82
2021/01/28 12:56:58;;;;;;;2.90;1.93;;;;;;;;;;6210313;23;20005;-82
2021/01/28 12:59:24;;;;;;;1.27;0.97;;;;;;;;;;6199681;23;20017;-82
2021/01/28 13:01:51;;;;;;;2.33;2.10;;;;;;;;;;6199206;23;20051;-82
2021/01/28 13:04:17;;;;;;;4.30;2.27;;;;;;;;;;6199627;23;20005;-82
2021/01/28 13:06:43;;;;;;;4.00;1.50;;;;;;;;;;6199924;23;20019;-82
2021/01/28 13:09:09;;;;;;;2.70;2.10;;;;;;;;;;6205747;23;20319;-82
2021/01/28 13:11:35;;;;;;;1.83;1.37;;;;;;;;;;6202842;23;20001;-83
2021/01/28 13:14:01;;;;;;;2.87;1.97;;;;;;;;;;6207269;23;20066;-83
2021/01/28 13:16:27;;;;;;;8.40;1.80;;;;;;;;;;6203493;23;20012;-82
2021/01/28 13:18:54;;;;;;;1.43;0.87;;;;;;;;;;6198313;23;20415;-82
2021/01/28 13:21:20;;;;;;;4.03;2.33;;;;;;;;;;6200912;23;19998;-83
2021/01/28 13:23:46;;;;;;;2.37;1.50;;;;;;;;;;6207785;23;19989;-83
2021/01/28 13:26:12;;;;;;;2.70;1.87;;;;;;;;;;6203074;23;20084;-82
2021/01/28 13:28:38;;;;;;;2.83;1.87;;;;;;;;;;6172442;23;20006;-82
2021/01/28 13:31:04;;;;;;;1.70;1.00;;;;;;;;;;6196526;23;20005;-84
2021/01/28 13:33:30;;;;;;;2.83;1.80;;;;;;;;;;6197248;23;20021;-83
2021/01/28 13:36:00;;;;;;;2.07;1.73;;;;;;;;;;6199667;23;20042;-82
2021/01/28 13:39:03;;;;;;;3.50;1.80;;;;;;;;;;6202953;23;20013;-83
2021/01/28 13:41:30;;;;;;;5.80;1.13;;;;;;;;;;6205188;23;20077;-83
2021/01/28 13:43:59;;;;;;;1.60;1.30;;;;;;;;;;6205249;23;20001;-83
2021/01/28 13:46:26;;;;;;;0.60;0.60;;;;;;;;;;6208595;23;20009;-83
2021/01/28 13:48:52;;;;;;;1.80;1.17;;;;;;;;;;6209382;23;20012;-83
2021/01/28 13:51:18;;;;;;;2.93;1.60;;;;;;;;;;6211373;23;19992;-84
2021/01/28 13:53:44;;;;;;;1.77;1.13;;;;;;;;;;6210337;23;20065;-83
2021/01/28 13:56:10;;;;;;;3.13;1.53;;;;;;;;;;6207917;23;19994;-83
2021/01/28 13:58:36;;;;;;;2.87;2.03;;;;;;;;;;6220101;23;20016;-84
2021/01/28 14:01:03;;;;;;;0.97;0.70;;;;;;;;;;6214895;23;20078;-84
2021/01/28 14:03:29;;;;;;;4.63;1.70;;;;;;;;;;6215861;23;20011;-83
2021/01/28 14:05:55;;;;;;;3.03;2.33;;;;;;;;;;6217030;23;20012;-84
2021/01/28 14:08:21;;;;;;;2.70;1.97;;;;;;;;;;6217058;23;19985;-84
2021/01/28 14:13:53;;;;;;;3.87;2.87;;;;;;;;;;6240790;23;20026;-81
2021/01/28 14:16:19;;;;;;;2.77;1.80;;;;;;;;;;6214017;23;20001;-82
2021/01/28 14:18:45;;;;;;;2.70;2.10;;;;;;;;;;6215637;23;20011;-84
2021/01/28 14:21:12;;;;;;;4.33;2.10;;;;;;;;;;6215791;23;19991;-82
2021/01/28 14:23:39;;;;;;;2.10;1.90;;;;;;;;;;6239780;23;20011;-82
2021/01/28 14:26:05;;;;;;;2.77;0.83;;;;;;;;;;6214557;23;19996;-83
2021/01/28 14:28:32;;;;;;;4.37;3.97;;;;;;;;;;6214776;23;20005;-82
2021/01/28 14:31:02;;;;;;;4.13;2.40;;;;;;;;;;6211111;23;20019;-82
2021/01/28 14:33:29;;;;;;;4.50;3.27;;;;;;;;;;6205074;23;20056;-82
2021/01/28 14:35:55;;;;;;;2.40;1.87;;;;;;;;;;6204954;23;20009;-83
2021/01/28 14:38:21;;;;;;;3.10;2.80;;;;;;;;;;6207124;23;20011;-82
2021/01/28 14:43:55;;;;;;;4.23;3.33;;;;;;;;;;6240367;23;20015;-83
2021/01/28 14:46:22;;;;;;;4.00;2.80;;;;;;;;;;6215743;23;20021;-84
2021/01/28 14:48:48;;;;;;;2.40;1.77;;;;;;;;;;6216610;23;20007;-83
2021/01/28 14:51:14;;;;;;;2.93;2.33;;;;;;;;;;6201976;23;20423;-84
2021/01/28 14:53:40;;;;;;;2.63;1.43;;;;;;;;;;6230971;23;20064;-83
2021/01/28 14:56:06;;;;;;;5.33;4.10;;;;;;;;;;6202301;23;19988;-82
2021/01/28 14:58:32;;;;;;;3.43;2.33;;;;;;;;;;6204254;23;20008;-82
2021/01/28 15:01:04;;;;;;;4.93;4.30;;;;;;;;;;6229856;23;20005;-82
2021/01/28 15:03:31;;;;;;;4.37;3.47;;;;;;;;;;6203116;23;20011;-82
2021/01/28 15:05:57;;;;;;;4.67;3.13;;;;;;;;;;6230399;23;20009;-82
2021/01/28 15:08:23;;;;;;;4.47;2.77;;;;;;;;;;6234803;23;20009;-82